createdAt,value
2019-02-22T00:02:56.819Z,18.97
2019-02-22T00:06:01.629Z,18.03
2019-02-22T00:09:07.715Z,17.10
2019-02-22T00:12:12.765Z,17.40
2019-02-22T00:15:17.627Z,17.43
2019-02-22T00:18:22.451Z,15.67
2019-02-22T00:21:27.298Z,16.52
2019-02-22T00:24:32.117Z,17.30
2019-02-22T00:27:36.971Z,16.97
2019-02-22T00:30:41.795Z,14.93
2019-02-22T00:33:46.605Z,15.15
2019-02-22T00:36:51.437Z,14.47
2019-02-22T00:39:56.247Z,14.43
2019-02-22T00:43:01.100Z,15.20
2019-02-22T00:46:05.988Z,14.20
2019-02-22T00:49:10.830Z,13.70
2019-02-22T00:52:15.682Z,14.63
2019-02-22T00:55:21.211Z,14.25
2019-02-22T00:58:26.039Z,13.47
2019-02-22T01:01:30.862Z,11.57
2019-02-22T01:04:35.677Z,11.40
2019-02-22T01:07:40.501Z,10.60
2019-02-22T01:10:45.342Z,10.77
2019-02-22T01:13:50.264Z,10.13
2019-02-22T01:16:57.255Z,10.47
2019-02-22T01:20:01.638Z,10.63
2019-02-22T01:23:07.453Z,10.03
2019-02-22T01:26:13.173Z,10.57
2019-02-22T01:29:18.027Z,10.20
2019-02-22T01:32:22.921Z,10.00
2019-02-22T01:35:27.750Z,10.13
2019-02-22T01:38:32.595Z,9.47
2019-02-22T01:41:37.418Z,9.33
2019-02-22T01:44:42.263Z,10.03
2019-02-22T01:47:47.133Z,9.23
2019-02-22T01:50:51.958Z,8.43
2019-02-22T01:53:56.766Z,8.57
2019-02-22T01:57:01.598Z,8.40
2019-02-22T02:00:08.402Z,7.67
2019-02-22T02:03:14.338Z,7.67
2019-02-22T02:06:19.174Z,8.37
2019-02-22T02:09:24.054Z,7.57
2019-02-22T02:12:28.902Z,7.43
2019-02-22T02:15:33.738Z,7.00
2019-02-22T02:18:38.778Z,8.20
2019-02-22T02:21:43.618Z,7.37
2019-02-22T02:24:49.391Z,7.77
2019-02-22T02:27:54.198Z,7.10
2019-02-22T02:30:59.078Z,7.40
2019-02-22T02:34:03.911Z,7.00
2019-02-22T02:37:08.834Z,6.45
2019-02-22T02:40:13.743Z,7.07
2019-02-22T02:43:18.566Z,7.10
2019-02-22T02:46:23.414Z,6.13
2019-02-22T02:49:28.278Z,6.70
2019-02-22T02:52:33.115Z,5.97
2019-02-22T02:55:38.575Z,5.65
2019-02-22T02:58:43.462Z,5.63
2019-02-22T03:01:48.308Z,5.60
2019-02-22T03:04:53.132Z,5.95
2019-02-22T03:07:58.810Z,5.90
2019-02-22T03:11:03.629Z,5.15
2019-02-22T03:14:08.459Z,5.80
2019-02-22T03:17:13.273Z,5.47
2019-02-22T03:20:18.100Z,5.83
2019-02-22T03:23:22.936Z,5.10
2019-02-22T03:26:28.375Z,4.87
2019-02-22T03:29:33.326Z,5.63
2019-02-22T03:32:38.247Z,5.37
2019-02-22T03:35:43.130Z,5.07
2019-02-22T03:38:48.035Z,4.17
2019-02-22T03:41:52.871Z,4.50
2019-02-22T03:44:57.755Z,4.37
2019-02-22T03:48:02.606Z,4.23
2019-02-22T03:51:08.419Z,4.00
2019-02-22T03:54:13.254Z,3.87
2019-02-22T03:57:19.055Z,3.67
2019-02-22T04:00:23.877Z,4.07
2019-02-22T04:03:28.793Z,4.53
2019-02-22T04:06:33.602Z,3.87
2019-02-22T04:09:38.451Z,4.80
2019-02-22T04:12:43.277Z,4.40
2019-02-22T04:15:48.111Z,4.30
2019-02-22T04:18:53.078Z,5.00
2019-02-22T04:21:57.989Z,5.17
2019-02-22T04:25:02.798Z,5.40
2019-02-22T04:28:07.615Z,4.90
2019-02-22T04:31:12.458Z,5.50
2019-02-22T04:34:17.280Z,6.57
2019-02-22T04:37:22.120Z,5.87
2019-02-22T04:40:26.963Z,6.27
2019-02-22T04:43:31.795Z,6.07
2019-02-22T04:46:36.610Z,7.13
2019-02-22T04:49:41.405Z,6.90
2019-02-22T04:52:46.250Z,6.20
2019-02-22T04:55:51.164Z,6.90
2019-02-22T04:58:56.186Z,6.90
2019-02-22T05:02:02.186Z,7.17
2019-02-22T05:05:07.066Z,7.83
2019-02-22T05:08:11.906Z,8.80
2019-02-22T05:11:16.744Z,9.10
2019-02-22T05:14:21.629Z,10.27
2019-02-22T05:17:26.488Z,10.47
2019-02-22T05:20:31.392Z,9.97
2019-02-22T05:23:36.377Z,10.03
2019-02-22T05:26:41.189Z,9.67
2019-02-22T05:29:46.054Z,13.10
2019-02-22T05:32:50.981Z,15.63
2019-02-22T05:35:55.786Z,16.20
2019-02-22T05:39:00.684Z,16.07
2019-02-22T05:42:07.123Z,14.70
2019-02-22T05:45:11.982Z,18.23
2019-02-22T05:48:16.862Z,16.70
2019-02-22T05:51:21.757Z,15.93
2019-02-22T05:54:26.581Z,18.57
2019-02-22T05:57:31.399Z,15.93
2019-02-22T06:00:36.259Z,18.13
2019-02-22T06:03:41.105Z,15.87
2019-02-22T06:06:45.967Z,16.53
2019-02-22T06:09:50.789Z,15.77
2019-02-22T06:12:55.605Z,14.00
2019-02-22T06:16:00.433Z,13.57
2019-02-22T06:19:05.292Z,14.63
2019-02-22T06:22:10.296Z,11.93
2019-02-22T06:25:15.181Z,11.70
2019-02-22T06:28:20.005Z,10.73
2019-02-22T06:31:25.009Z,10.40
2019-02-22T06:34:29.812Z,10.13
2019-02-22T06:37:35.595Z,9.60
2019-02-22T06:40:40.398Z,8.70
2019-02-22T06:43:45.269Z,8.57
2019-02-22T06:46:51.213Z,7.05
2019-02-22T06:49:56.186Z,7.37
2019-02-22T06:53:00.994Z,6.97
2019-02-22T06:56:05.818Z,6.20
2019-02-22T06:59:10.636Z,6.60
2019-02-22T07:02:15.514Z,6.33
2019-02-22T07:05:20.365Z,6.03
2019-02-22T07:08:25.195Z,5.40
2019-02-22T07:11:37.666Z,5.30
2019-02-22T07:14:41.854Z,9.63
2019-02-22T07:17:46.649Z,4.80
2019-02-22T07:20:51.499Z,5.00
2019-02-22T07:23:56.304Z,4.53
2019-02-22T07:27:01.147Z,4.37
2019-02-22T07:30:08.897Z,3.63
2019-02-22T07:33:13.704Z,3.77
2019-02-22T07:36:19.622Z,3.13
2019-02-22T07:39:27.774Z,4.33
2019-02-22T07:42:30.953Z,3.23
2019-02-22T07:45:35.819Z,2.90
2019-02-22T07:48:40.622Z,3.57
2019-02-22T07:51:45.438Z,3.40
2019-02-22T07:54:50.267Z,3.40
2019-02-22T07:57:55.110Z,3.77
2019-02-22T08:00:59.932Z,4.47
2019-02-22T08:04:04.726Z,3.63
2019-02-22T08:07:09.570Z,3.47
2019-02-22T08:10:14.416Z,3.47
2019-02-22T08:13:20.132Z,3.30
2019-02-22T08:16:26.118Z,3.50
2019-02-22T08:19:30.938Z,3.90
2019-02-22T08:22:35.840Z,3.53
2019-02-22T08:25:40.641Z,3.70
2019-02-22T08:28:45.485Z,3.30
2019-02-22T08:31:50.311Z,3.37
2019-02-22T08:34:55.152Z,3.20
2019-02-22T08:37:59.961Z,3.43
2019-02-22T08:41:04.804Z,3.43
2019-02-22T08:44:09.657Z,3.20
2019-02-22T08:47:14.551Z,3.10
2019-02-22T08:50:19.366Z,3.50
2019-02-22T08:53:24.226Z,4.37
2019-02-22T08:56:29.033Z,4.03
2019-02-22T08:59:33.928Z,3.70
2019-02-22T09:02:38.811Z,3.73
2019-02-22T09:05:44.619Z,3.80
2019-02-22T09:08:49.430Z,3.10
2019-02-22T09:11:54.258Z,3.25
2019-02-22T09:14:59.072Z,3.10
2019-02-22T09:18:04.074Z,3.30
2019-02-22T09:21:08.885Z,2.97
2019-02-22T09:24:13.682Z,2.95
2019-02-22T09:27:18.495Z,3.50
2019-02-22T09:30:23.310Z,2.70
2019-02-22T09:33:28.144Z,3.47
2019-02-22T09:36:32.950Z,4.60
2019-02-22T09:39:37.785Z,3.20
2019-02-22T09:42:42.585Z,2.97
2019-02-22T09:45:47.410Z,2.90
2019-02-22T09:48:52.214Z,3.20
2019-02-22T09:51:57.035Z,3.73
2019-02-22T09:55:01.870Z,5.23
2019-02-22T09:58:08.554Z,2.73
2019-02-22T10:01:13.432Z,3.80
2019-02-22T10:04:18.666Z,2.67
2019-02-22T10:07:23.540Z,5.37
2019-02-22T10:10:28.370Z,2.63
2019-02-22T10:13:33.211Z,2.67
2019-02-22T10:16:38.055Z,2.92
2019-02-22T10:19:42.858Z,2.97
2019-02-22T10:22:47.722Z,3.35
2019-02-22T10:25:52.581Z,2.57
2019-02-22T10:28:57.438Z,3.10
2019-02-22T10:32:02.274Z,4.57
2019-02-22T10:35:07.744Z,2.93
2019-02-22T10:38:12.589Z,2.93
2019-02-22T10:41:17.490Z,2.80
2019-02-22T10:44:22.303Z,3.53
2019-02-22T10:47:27.197Z,3.00
2019-02-22T10:50:32.001Z,3.07
2019-02-22T10:53:36.846Z,2.93
2019-02-22T10:56:41.645Z,3.10
2019-02-22T10:59:46.459Z,2.90
2019-02-22T11:02:51.311Z,2.97
2019-02-22T11:05:56.152Z,2.90
2019-02-22T11:09:00.991Z,3.40
2019-02-22T11:12:07.262Z,3.20
2019-02-22T11:15:13.117Z,2.97
2019-02-22T11:18:17.958Z,3.17
2019-02-22T11:21:22.757Z,4.43
2019-02-22T11:24:27.603Z,3.03
2019-02-22T11:27:32.432Z,3.33
2019-02-22T11:30:37.245Z,3.13
2019-02-22T11:33:42.087Z,3.53
2019-02-22T11:36:46.974Z,3.10
2019-02-22T11:39:51.791Z,4.05
2019-02-22T11:42:56.590Z,3.43
2019-02-22T11:46:01.966Z,3.10
2019-02-22T11:49:06.787Z,6.97
2019-02-22T11:52:11.630Z,3.00
2019-02-22T11:55:16.500Z,2.83
2019-02-22T11:58:21.623Z,3.27
2019-02-22T12:01:26.430Z,3.27
2019-02-22T12:04:32.198Z,3.60
2019-02-22T12:07:37.038Z,3.00
2019-02-22T12:10:41.851Z,4.92
2019-02-22T12:13:46.707Z,3.20
2019-02-22T12:16:51.514Z,2.90
2019-02-22T12:19:56.358Z,4.60
2019-02-22T12:23:01.188Z,3.57
2019-02-22T12:26:06.000Z,3.93
2019-02-22T12:29:10.813Z,3.13
2019-02-22T12:32:15.629Z,3.67
2019-02-22T12:35:20.449Z,3.83
2019-02-22T12:38:25.278Z,3.03
2019-02-22T12:41:30.089Z,4.00
2019-02-22T12:44:34.947Z,3.57
2019-02-22T12:47:39.745Z,2.93
2019-02-22T12:50:44.574Z,4.50
2019-02-22T12:53:49.414Z,3.87
2019-02-22T12:56:57.578Z,3.93
2019-02-22T13:00:00.833Z,4.10
2019-02-22T13:03:06.846Z,3.83
2019-02-22T13:06:11.671Z,3.17
2019-02-22T13:09:16.534Z,3.70
2019-02-22T13:12:21.378Z,3.43
2019-02-22T13:15:26.269Z,3.20
2019-02-22T13:18:32.048Z,3.40
2019-02-22T13:21:36.955Z,3.17
2019-02-22T13:24:41.766Z,3.47
2019-02-22T13:27:46.585Z,7.27
2019-02-22T13:30:51.454Z,3.50
2019-02-22T13:33:56.290Z,3.67
2019-02-22T13:37:01.112Z,4.03
2019-02-22T13:40:16.823Z,3.57
2019-02-22T13:43:21.674Z,3.80
2019-02-22T13:46:26.724Z,3.23
2019-02-22T13:49:31.619Z,4.47
2019-02-22T13:52:36.421Z,4.07
2019-02-22T13:55:41.259Z,3.93
2019-02-22T13:58:46.186Z,3.83
2019-02-22T14:01:50.983Z,4.33
2019-02-22T14:04:55.826Z,3.70
2019-02-22T14:08:01.034Z,3.77
2019-02-22T14:11:05.841Z,4.10
2019-02-22T14:14:10.658Z,3.77
2019-02-22T14:17:15.458Z,3.20
2019-02-22T14:20:20.470Z,3.30
2019-02-22T14:23:25.289Z,3.60
2019-02-22T14:26:30.193Z,3.58
2019-02-22T14:29:35.018Z,3.60
2019-02-22T14:32:39.817Z,3.67
2019-02-22T14:35:44.629Z,3.87
2019-02-22T14:38:49.469Z,3.63
2019-02-22T14:41:54.375Z,4.03
2019-02-22T14:45:01.296Z,3.67
2019-02-22T14:48:06.830Z,3.57
2019-02-22T14:51:11.641Z,3.40
2019-02-22T14:54:16.469Z,3.73
2019-02-22T14:57:21.294Z,3.77
2019-02-22T15:00:26.132Z,4.30
2019-02-22T15:03:30.930Z,4.67
2019-02-22T15:06:35.782Z,3.90
2019-02-22T15:09:40.576Z,3.70
2019-02-22T15:12:45.393Z,3.67
2019-02-22T15:16:06.917Z,3.53
2019-02-22T15:19:11.744Z,4.13
2019-02-22T15:22:16.555Z,5.43
2019-02-22T15:25:22.322Z,3.87
2019-02-22T15:28:27.142Z,4.30
2019-02-22T15:31:35.994Z,4.43
2019-02-22T15:34:39.459Z,4.37
2019-02-22T15:37:44.303Z,4.33
2019-02-22T15:40:49.237Z,4.17
2019-02-22T15:43:54.999Z,5.07
2019-02-22T15:47:11.126Z,3.70
2019-02-22T15:50:11.768Z,4.20
2019-02-22T15:53:16.600Z,4.17
2019-02-22T15:56:21.451Z,4.33
2019-02-22T15:59:26.291Z,3.93
2019-02-22T16:02:31.178Z,4.27
2019-02-22T16:05:40.601Z,4.10
2019-02-22T16:08:45.431Z,4.60
2019-02-22T16:11:52.339Z,4.47
2019-02-22T16:14:58.372Z,3.80
2019-02-22T16:18:05.725Z,7.30
2019-02-22T16:21:10.637Z,3.67
2019-02-22T16:24:15.546Z,3.80
2019-02-22T16:27:20.376Z,4.70
2019-02-22T16:30:27.391Z,4.20
2019-02-22T16:33:32.244Z,4.67
2019-02-22T16:36:37.121Z,4.20
2019-02-22T16:39:41.971Z,4.73
2019-02-22T16:42:46.799Z,5.53
2019-02-22T16:45:51.644Z,5.10
2019-02-22T16:48:56.483Z,4.20
2019-02-22T16:52:01.286Z,4.43
2019-02-22T16:55:09.511Z,4.83
2019-02-22T16:58:14.742Z,4.53
2019-02-22T17:01:20.521Z,3.80
2019-02-22T17:04:25.383Z,4.63
2019-02-22T17:07:30.217Z,5.07
2019-02-22T17:10:35.036Z,5.20
2019-02-22T17:13:39.837Z,4.77
2019-02-22T17:16:46.138Z,4.50
2019-02-22T17:19:51.168Z,4.43
2019-02-22T17:22:55.993Z,4.77
2019-02-22T17:26:00.801Z,5.37
2019-02-22T17:29:05.634Z,5.57
2019-02-22T17:32:10.445Z,5.13
2019-02-22T17:35:15.249Z,5.80
2019-02-22T17:38:20.072Z,5.10
2019-02-22T17:41:24.889Z,5.20
2019-02-22T17:44:29.726Z,5.07
2019-02-22T17:47:34.542Z,5.50
2019-02-22T17:50:39.350Z,5.67
2019-02-22T17:53:46.273Z,4.93
2019-02-22T17:56:51.108Z,5.50
2019-02-22T17:59:55.947Z,5.63
2019-02-22T18:03:00.846Z,6.15
2019-02-22T18:06:05.794Z,6.00
2019-02-22T18:09:10.634Z,5.83
2019-02-22T18:12:15.494Z,5.67
2019-02-22T18:15:20.298Z,5.57
2019-02-22T18:18:25.189Z,5.20
2019-02-22T18:21:30.015Z,5.50
2019-02-22T18:24:34.855Z,5.77
2019-02-22T18:27:39.666Z,5.58
2019-02-22T18:30:44.512Z,7.40
2019-02-22T18:33:49.324Z,5.93
2019-02-22T18:36:55.047Z,5.00
2019-02-22T18:39:59.864Z,5.73
2019-02-22T18:43:04.678Z,6.67
2019-02-22T18:46:09.489Z,5.93
2019-02-22T18:49:14.344Z,5.67
2019-02-22T18:52:19.306Z,6.80
2019-02-22T18:55:24.149Z,6.00
2019-02-22T18:58:28.954Z,5.63
2019-02-22T19:01:33.761Z,6.17
2019-02-22T19:04:38.614Z,5.77
2019-02-22T19:07:43.413Z,6.00
2019-02-22T19:10:48.234Z,5.97
2019-02-22T19:13:53.113Z,7.13
2019-02-22T19:16:57.935Z,6.20
2019-02-22T19:20:02.841Z,6.20
2019-02-22T19:23:07.671Z,6.40
2019-02-22T19:26:12.487Z,6.80
2019-02-22T19:29:17.326Z,5.47
2019-02-22T19:32:22.166Z,6.60
2019-02-22T19:35:26.980Z,5.83
2019-02-22T19:38:31.786Z,6.63
2019-02-22T19:41:36.590Z,5.97
2019-02-22T19:44:41.410Z,5.30
2019-02-22T19:47:46.225Z,7.20
2019-02-22T19:50:51.058Z,6.40
2019-02-22T19:53:55.877Z,8.13
2019-02-22T19:57:00.678Z,7.73
2019-02-22T20:00:11.708Z,11.80
2019-02-22T20:03:16.535Z,12.50
2019-02-22T20:06:21.378Z,8.10
2019-02-22T20:09:26.218Z,7.40
2019-02-22T20:12:31.023Z,7.33
2019-02-22T20:15:35.866Z,6.73
2019-02-22T20:18:40.669Z,7.73
2019-02-22T20:21:45.486Z,7.23
2019-02-22T20:24:50.326Z,8.60
2019-02-22T20:27:55.174Z,7.17
2019-02-22T20:31:00.090Z,7.00
2019-02-22T20:34:04.901Z,7.47
2019-02-22T20:37:09.844Z,7.00
2019-02-22T20:40:14.770Z,7.07
2019-02-22T20:43:19.734Z,7.77
2019-02-22T20:46:24.542Z,9.73
2019-02-22T20:52:39.852Z,8.40
2019-02-22T20:55:44.692Z,7.83
2019-02-22T20:58:49.692Z,9.95
2019-02-22T21:01:54.538Z,12.07
2019-02-22T21:04:59.343Z,8.00
2019-02-22T21:08:04.236Z,8.50
2019-02-22T21:11:09.043Z,8.70
2019-02-22T21:14:13.851Z,7.80
2019-02-22T21:17:18.667Z,9.37
2019-02-22T21:20:23.742Z,8.73
2019-02-22T21:23:28.582Z,9.27
2019-02-22T21:26:33.414Z,8.30
2019-02-22T21:29:39.209Z,13.03
2019-02-22T21:32:44.142Z,11.73
2019-02-22T21:35:49.952Z,10.47
2019-02-22T21:38:54.769Z,10.67
2019-02-22T21:41:59.604Z,11.87
2019-02-22T21:45:06.585Z,8.97
2019-02-22T21:48:13.029Z,10.07
2019-02-22T21:51:17.861Z,8.53
2019-02-22T21:54:23.193Z,11.15
2019-02-22T21:57:28.040Z,10.37
2019-02-22T22:00:32.884Z,9.60
2019-02-22T22:03:37.699Z,9.47
2019-02-22T22:06:42.525Z,9.25
2019-02-22T22:09:47.442Z,10.83
2019-02-22T22:12:52.248Z,12.07
2019-02-22T22:15:58.108Z,11.93
2019-02-22T22:19:02.950Z,9.90
2019-02-22T22:22:07.790Z,11.90
2019-02-22T22:25:14.641Z,8.13
2019-02-22T22:28:19.472Z,8.23
2019-02-22T22:31:24.309Z,8.87
2019-02-22T22:34:29.134Z,7.37
2019-02-22T22:37:33.971Z,7.13
2019-02-22T22:40:38.852Z,9.58
2019-02-22T22:43:43.683Z,8.23
2019-02-22T22:46:48.492Z,8.87
2019-02-22T22:49:53.322Z,7.25
2019-02-22T22:52:58.158Z,8.07
2019-02-22T22:56:02.995Z,8.33
2019-02-22T22:59:07.821Z,7.73
2019-02-22T23:02:12.625Z,7.90
2019-02-22T23:05:17.429Z,7.07
2019-02-22T23:08:22.342Z,7.60
2019-02-22T23:11:28.198Z,7.67
2019-02-22T23:14:33.045Z,7.53
2019-02-22T23:17:37.853Z,9.27
2019-02-22T23:20:42.698Z,7.23
2019-02-22T23:23:47.632Z,8.27
2019-02-22T23:26:52.533Z,8.73
2019-02-22T23:29:57.989Z,7.55
2019-02-22T23:33:02.903Z,7.77
2019-02-22T23:36:07.750Z,11.27
2019-02-22T23:39:12.596Z,8.87
2019-02-22T23:42:17.430Z,7.20
2019-02-22T23:45:23.238Z,9.57
2019-02-22T23:48:28.051Z,6.97
2019-02-22T23:51:32.878Z,7.27
2019-02-22T23:54:37.740Z,10.03
2019-02-22T23:57:42.577Z,7.40
